sensor_id;sensor_type;location;lat;lon;timestamp;P1;durP1;ratioP1;P2;durP2;ratioP2
60312;SDS011;46158;52.850;6.970;2022-10-16T00:01:16;5.07;;;2.20;;
60312;SDS011;46158;52.850;6.970;2022-10-16T00:03:43;3.83;;;2.10;;
60312;SDS011;46158;52.850;6.970;2022-10-16T00:06:10;3.10;;;1.90;;
60312;SDS011;46158;52.850;6.970;2022-10-16T00:08:37;2.75;;;2.00;;
60312;SDS011;46158;52.850;6.970;2022-10-16T00:13:37;6.25;;;2.05;;
60312;SDS011;46158;52.850;6.970;2022-10-16T00:16:04;7.30;;;2.20;;
60312;SDS011;46158;52.850;6.970;2022-10-16T00:18:30;4.57;;;2.00;;
60312;SDS011;46158;52.850;6.970;2022-10-16T00:21:01;7.38;;;2.30;;
60312;SDS011;46158;52.850;6.970;2022-10-16T00:23:31;6.72;;;2.20;;
60312;SDS011;46158;52.850;6.970;2022-10-16T00:25:58;4.93;;;2.05;;
60312;SDS011;46158;52.850;6.970;2022-10-16T00:28:26;5.97;;;2.13;;
60312;SDS011;46158;52.850;6.970;2022-10-16T00:30:51;4.70;;;2.25;;
60312;SDS011;46158;52.850;6.970;2022-10-16T00:33:17;4.00;;;2.20;;
60312;SDS011;46158;52.850;6.970;2022-10-16T00:35:43;3.70;;;1.95;;
60312;SDS011;46158;52.850;6.970;2022-10-16T00:38:09;5.70;;;2.03;;
60312;SDS011;46158;52.850;6.970;2022-10-16T00:40:35;5.72;;;2.10;;
60312;SDS011;46158;52.850;6.970;2022-10-16T00:43:00;6.55;;;2.20;;
60312;SDS011;46158;52.850;6.970;2022-10-16T00:45:26;2.70;;;1.80;;
60312;SDS011;46158;52.850;6.970;2022-10-16T00:47:52;3.85;;;2.00;;
60312;SDS011;46158;52.850;6.970;2022-10-16T00:50:30;5.95;;;2.20;;
60312;SDS011;46158;52.850;6.970;2022-10-16T00:52:58;3.10;;;2.03;;
60312;SDS011;46158;52.850;6.970;2022-10-16T00:55:25;6.22;;;2.20;;
60312;SDS011;46158;52.850;6.970;2022-10-16T00:57:53;4.30;;;2.00;;
60312;SDS011;46158;52.850;6.970;2022-10-16T01:00:23;3.08;;;2.00;;
60312;SDS011;46158;52.850;6.970;2022-10-16T01:02:54;4.35;;;2.08;;
60312;SDS011;46158;52.850;6.970;2022-10-16T01:05:36;5.93;;;2.20;;
60312;SDS011;46158;52.850;6.970;2022-10-16T01:08:12;4.60;;;2.20;;
60312;SDS011;46158;52.850;6.970;2022-10-16T01:13:24;4.40;;;2.15;;
60312;SDS011;46158;52.850;6.970;2022-10-16T01:16:11;5.68;;;2.13;;
60312;SDS011;46158;52.850;6.970;2022-10-16T01:18:43;5.65;;;2.05;;
60312;SDS011;46158;52.850;6.970;2022-10-16T01:21:26;4.82;;;2.15;;
60312;SDS011;46158;52.850;6.970;2022-10-16T01:32:42;4.05;;;1.92;;
60312;SDS011;46158;52.850;6.970;2022-10-16T01:38:02;4.97;;;2.00;;
60312;SDS011;46158;52.850;6.970;2022-10-16T01:40:32;3.10;;;2.10;;
60312;SDS011;46158;52.850;6.970;2022-10-16T01:43:03;7.65;;;2.00;;
60312;SDS011;46158;52.850;6.970;2022-10-16T01:45:33;4.63;;;2.00;;
60312;SDS011;46158;52.850;6.970;2022-10-16T01:48:00;3.85;;;2.08;;
60312;SDS011;46158;52.850;6.970;2022-10-16T01:50:30;5.13;;;1.90;;
60312;SDS011;46158;52.850;6.970;2022-10-16T01:53:00;4.40;;;2.20;;
60312;SDS011;46158;52.850;6.970;2022-10-16T01:55:29;3.50;;;1.90;;
60312;SDS011;46158;52.850;6.970;2022-10-16T01:57:58;3.42;;;1.92;;
60312;SDS011;46158;52.850;6.970;2022-10-16T02:00:26;3.60;;;1.90;;
60312;SDS011;46158;52.850;6.970;2022-10-16T02:02:53;5.55;;;2.00;;
60312;SDS011;46158;52.850;6.970;2022-10-16T02:07:48;5.88;;;2.10;;
60312;SDS011;46158;52.850;6.970;2022-10-16T02:10:14;5.93;;;2.33;;
60312;SDS011;46158;52.850;6.970;2022-10-16T02:12:42;4.95;;;2.10;;
60312;SDS011;46158;52.850;6.970;2022-10-16T02:15:11;4.40;;;2.00;;
60312;SDS011;46158;52.850;6.970;2022-10-16T02:17:37;3.05;;;2.00;;
60312;SDS011;46158;52.850;6.970;2022-10-16T02:20:03;8.15;;;2.20;;
60312;SDS011;46158;52.850;6.970;2022-10-16T02:22:33;4.97;;;2.08;;
60312;SDS011;46158;52.850;6.970;2022-10-16T02:25:12;4.03;;;1.80;;
60312;SDS011;46158;52.850;6.970;2022-10-16T02:27:44;5.38;;;2.20;;
60312;SDS011;46158;52.850;6.970;2022-10-16T02:32:48;4.53;;;1.92;;
60312;SDS011;46158;52.850;6.970;2022-10-16T02:35:16;3.72;;;2.00;;
60312;SDS011;46158;52.850;6.970;2022-10-16T02:37:43;2.95;;;2.00;;
60312;SDS011;46158;52.850;6.970;2022-10-16T02:40:11;2.40;;;1.80;;
60312;SDS011;46158;52.850;6.970;2022-10-16T02:42:39;5.05;;;2.17;;
60312;SDS011;46158;52.850;6.970;2022-10-16T02:45:05;4.15;;;1.90;;
60312;SDS011;46158;52.850;6.970;2022-10-16T02:47:33;4.22;;;2.10;;
60312;SDS011;46158;52.850;6.970;2022-10-16T02:49:58;3.88;;;1.98;;
60312;SDS011;46158;52.850;6.970;2022-10-16T02:52:24;5.00;;;1.88;;
60312;SDS011;46158;52.850;6.970;2022-10-16T02:54:50;3.38;;;1.90;;
60312;SDS011;46158;52.850;6.970;2022-10-16T02:57:16;2.28;;;1.90;;
60312;SDS011;46158;52.850;6.970;2022-10-16T02:59:43;3.67;;;2.00;;
60312;SDS011;46158;52.850;6.970;2022-10-16T03:02:09;3.90;;;1.88;;
60312;SDS011;46158;52.850;6.970;2022-10-16T03:04:34;4.07;;;1.90;;
60312;SDS011;46158;52.850;6.970;2022-10-16T03:07:00;4.70;;;2.00;;
60312;SDS011;46158;52.850;6.970;2022-10-16T03:09:26;5.22;;;2.00;;
60312;SDS011;46158;52.850;6.970;2022-10-16T03:11:51;3.10;;;2.00;;
60312;SDS011;46158;52.850;6.970;2022-10-16T03:14:17;3.55;;;2.00;;
60312;SDS011;46158;52.850;6.970;2022-10-16T03:16:42;5.43;;;2.03;;
60312;SDS011;46158;52.850;6.970;2022-10-16T03:19:08;2.00;;;1.80;;
60312;SDS011;46158;52.850;6.970;2022-10-16T03:21:34;3.60;;;2.10;;
60312;SDS011;46158;52.850;6.970;2022-10-16T03:23:59;4.20;;;1.90;;
60312;SDS011;46158;52.850;6.970;2022-10-16T03:26:25;4.43;;;2.00;;
60312;SDS011;46158;52.850;6.970;2022-10-16T03:28:51;2.50;;;1.90;;
60312;SDS011;46158;52.850;6.970;2022-10-16T03:31:16;3.17;;;2.10;;
60312;SDS011;46158;52.850;6.970;2022-10-16T03:33:42;3.75;;;1.90;;
60312;SDS011;46158;52.850;6.970;2022-10-16T03:36:08;2.85;;;2.00;;
60312;SDS011;46158;52.850;6.970;2022-10-16T03:38:33;4.43;;;2.08;;
60312;SDS011;46158;52.850;6.970;2022-10-16T03:40:59;3.40;;;1.88;;
60312;SDS011;46158;52.850;6.970;2022-10-16T03:43:25;3.78;;;2.00;;
60312;SDS011;46158;52.850;6.970;2022-10-16T03:45:50;2.17;;;1.70;;
60312;SDS011;46158;52.850;6.970;2022-10-16T03:48:17;3.25;;;2.03;;
60312;SDS011;46158;52.850;6.970;2022-10-16T03:50:43;3.38;;;1.90;;
60312;SDS011;46158;52.850;6.970;2022-10-16T03:53:09;3.33;;;1.90;;
60312;SDS011;46158;52.850;6.970;2022-10-16T03:55:34;3.78;;;1.90;;
60312;SDS011;46158;52.850;6.970;2022-10-16T03:58:00;4.68;;;1.90;;
60312;SDS011;46158;52.850;6.970;2022-10-16T04:00:26;2.97;;;2.00;;
60312;SDS011;46158;52.850;6.970;2022-10-16T04:02:52;3.28;;;1.98;;
60312;SDS011;46158;52.850;6.970;2022-10-16T04:05:17;4.68;;;1.90;;
60312;SDS011;46158;52.850;6.970;2022-10-16T04:07:43;3.20;;;1.90;;
60312;SDS011;46158;52.850;6.970;2022-10-16T04:10:09;3.33;;;2.00;;
60312;SDS011;46158;52.850;6.970;2022-10-16T04:12:35;4.97;;;1.88;;
60312;SDS011;46158;52.850;6.970;2022-10-16T04:15:01;3.42;;;1.90;;
60312;SDS011;46158;52.850;6.970;2022-10-16T04:17:26;3.17;;;1.90;;
60312;SDS011;46158;52.850;6.970;2022-10-16T04:19:52;3.22;;;1.80;;
60312;SDS011;46158;52.850;6.970;2022-10-16T04:22:17;5.35;;;2.05;;
60312;SDS011;46158;52.850;6.970;2022-10-16T04:24:43;4.63;;;1.90;;
60312;SDS011;46158;52.850;6.970;2022-10-16T04:27:09;2.22;;;1.80;;
60312;SDS011;46158;52.850;6.970;2022-10-16T04:29:34;4.22;;;1.85;;
60312;SDS011;46158;52.850;6.970;2022-10-16T04:32:00;3.70;;;2.03;;
60312;SDS011;46158;52.850;6.970;2022-10-16T04:34:26;4.85;;;1.90;;
60312;SDS011;46158;52.850;6.970;2022-10-16T04:36:51;4.28;;;1.83;;
60312;SDS011;46158;52.850;6.970;2022-10-16T04:39:17;3.58;;;2.10;;
60312;SDS011;46158;52.850;6.970;2022-10-16T04:41:43;3.22;;;1.77;;
60312;SDS011;46158;52.850;6.970;2022-10-16T04:44:08;3.80;;;2.00;;
60312;SDS011;46158;52.850;6.970;2022-10-16T04:46:34;3.90;;;2.05;;
60312;SDS011;46158;52.850;6.970;2022-10-16T04:49:00;3.45;;;2.00;;
60312;SDS011;46158;52.850;6.970;2022-10-16T04:51:25;4.13;;;1.90;;
60312;SDS011;46158;52.850;6.970;2022-10-16T04:53:52;5.72;;;2.33;;
60312;SDS011;46158;52.850;6.970;2022-10-16T04:56:19;3.65;;;2.00;;
60312;SDS011;46158;52.850;6.970;2022-10-16T04:58:46;4.15;;;2.10;;
60312;SDS011;46158;52.850;6.970;2022-10-16T05:01:11;4.10;;;2.13;;
60312;SDS011;46158;52.850;6.970;2022-10-16T05:03:38;3.72;;;2.03;;
60312;SDS011;46158;52.850;6.970;2022-10-16T05:06:05;3.60;;;1.90;;
60312;SDS011;46158;52.850;6.970;2022-10-16T05:08:31;3.63;;;1.88;;
60312;SDS011;46158;52.850;6.970;2022-10-16T05:10:57;2.83;;;1.92;;
60312;SDS011;46158;52.850;6.970;2022-10-16T05:13:22;4.85;;;2.10;;
60312;SDS011;46158;52.850;6.970;2022-10-16T05:15:48;3.55;;;1.98;;
60312;SDS011;46158;52.850;6.970;2022-10-16T05:18:14;5.18;;;1.90;;
60312;SDS011;46158;52.850;6.970;2022-10-16T05:20:40;6.30;;;1.90;;
60312;SDS011;46158;52.850;6.970;2022-10-16T05:23:06;5.28;;;2.22;;
60312;SDS011;46158;52.850;6.970;2022-10-16T05:25:32;4.47;;;2.00;;
60312;SDS011;46158;52.850;6.970;2022-10-16T05:27:58;4.03;;;1.90;;
60312;SDS011;46158;52.850;6.970;2022-10-16T05:30:23;3.17;;;1.90;;
60312;SDS011;46158;52.850;6.970;2022-10-16T05:32:50;5.13;;;2.03;;
60312;SDS011;46158;52.850;6.970;2022-10-16T05:35:16;4.07;;;2.00;;
60312;SDS011;46158;52.850;6.970;2022-10-16T05:37:42;4.03;;;1.98;;
60312;SDS011;46158;52.850;6.970;2022-10-16T05:40:08;2.33;;;1.80;;
60312;SDS011;46158;52.850;6.970;2022-10-16T05:42:34;3.17;;;1.90;;
60312;SDS011;46158;52.850;6.970;2022-10-16T05:45:00;5.97;;;2.30;;
60312;SDS011;46158;52.850;6.970;2022-10-16T05:47:26;3.72;;;2.10;;
60312;SDS011;46158;52.850;6.970;2022-10-16T05:49:52;4.38;;;2.00;;
60312;SDS011;46158;52.850;6.970;2022-10-16T05:52:18;2.28;;;1.85;;
60312;SDS011;46158;52.850;6.970;2022-10-16T05:54:43;3.33;;;1.88;;
60312;SDS011;46158;52.850;6.970;2022-10-16T05:57:09;4.90;;;1.83;;
60312;SDS011;46158;52.850;6.970;2022-10-16T05:59:35;5.55;;;2.08;;
60312;SDS011;46158;52.850;6.970;2022-10-16T06:02:01;7.70;;;2.30;;
60312;SDS011;46158;52.850;6.970;2022-10-16T06:04:26;15.20;;;3.53;;
60312;SDS011;46158;52.850;6.970;2022-10-16T06:06:52;12.45;;;4.00;;
60312;SDS011;46158;52.850;6.970;2022-10-16T06:09:18;25.58;;;10.38;;
60312;SDS011;46158;52.850;6.970;2022-10-16T06:11:43;23.42;;;8.85;;
60312;SDS011;46158;52.850;6.970;2022-10-16T06:14:09;20.27;;;7.43;;
60312;SDS011;46158;52.850;6.970;2022-10-16T06:16:35;20.17;;;7.13;;
60312;SDS011;46158;52.850;6.970;2022-10-16T06:19:02;18.83;;;7.10;;
60312;SDS011;46158;52.850;6.970;2022-10-16T06:21:31;20.47;;;6.77;;
60312;SDS011;46158;52.850;6.970;2022-10-16T06:23:57;18.30;;;6.45;;
60312;SDS011;46158;52.850;6.970;2022-10-16T06:26:24;20.75;;;6.35;;
60312;SDS011;46158;52.850;6.970;2022-10-16T06:28:53;17.17;;;5.65;;
60312;SDS011;46158;52.850;6.970;2022-10-16T06:31:20;17.95;;;5.80;;
60312;SDS011;46158;52.850;6.970;2022-10-16T06:33:49;18.17;;;5.40;;
60312;SDS011;46158;52.850;6.970;2022-10-16T06:36:16;11.70;;;3.40;;
60312;SDS011;46158;52.850;6.970;2022-10-16T06:38:43;9.65;;;3.20;;
60312;SDS011;46158;52.850;6.970;2022-10-16T06:41:11;11.35;;;3.67;;
60312;SDS011;46158;52.850;6.970;2022-10-16T06:43:39;13.95;;;3.83;;
60312;SDS011;46158;52.850;6.970;2022-10-16T06:46:05;16.80;;;4.13;;
60312;SDS011;46158;52.850;6.970;2022-10-16T06:51:05;11.15;;;3.30;;
60312;SDS011;46158;52.850;6.970;2022-10-16T06:53:40;15.43;;;3.83;;
60312;SDS011;46158;52.850;6.970;2022-10-16T06:56:10;14.70;;;4.60;;
60312;SDS011;46158;52.850;6.970;2022-10-16T06:58:37;14.75;;;4.20;;
60312;SDS011;46158;52.850;6.970;2022-10-16T07:01:04;15.50;;;4.10;;
60312;SDS011;46158;52.850;6.970;2022-10-16T07:03:30;14.95;;;4.30;;
60312;SDS011;46158;52.850;6.970;2022-10-16T07:05:55;14.40;;;3.92;;
60312;SDS011;46158;52.850;6.970;2022-10-16T07:08:21;15.80;;;4.05;;
60312;SDS011;46158;52.850;6.970;2022-10-16T07:10:47;14.57;;;3.75;;
60312;SDS011;46158;52.850;6.970;2022-10-16T07:13:13;11.93;;;3.20;;
60312;SDS011;46158;52.850;6.970;2022-10-16T07:15:40;10.55;;;3.25;;
60312;SDS011;46158;52.850;6.970;2022-10-16T07:18:06;16.02;;;3.85;;
60312;SDS011;46158;52.850;6.970;2022-10-16T07:20:32;19.73;;;3.50;;
60312;SDS011;46158;52.850;6.970;2022-10-16T07:22:58;12.35;;;3.60;;
60312;SDS011;46158;52.850;6.970;2022-10-16T07:25:23;14.27;;;3.67;;
60312;SDS011;46158;52.850;6.970;2022-10-16T07:27:49;10.82;;;3.58;;
60312;SDS011;46158;52.850;6.970;2022-10-16T07:30:15;12.48;;;3.20;;
60312;SDS011;46158;52.850;6.970;2022-10-16T07:32:40;12.77;;;3.25;;
60312;SDS011;46158;52.850;6.970;2022-10-16T07:35:06;14.48;;;3.60;;
60312;SDS011;46158;52.850;6.970;2022-10-16T07:37:32;10.05;;;3.13;;
60312;SDS011;46158;52.850;6.970;2022-10-16T07:39:58;13.32;;;3.40;;
60312;SDS011;46158;52.850;6.970;2022-10-16T07:42:23;12.52;;;3.58;;
60312;SDS011;46158;52.850;6.970;2022-10-16T07:44:49;13.93;;;3.38;;
60312;SDS011;46158;52.850;6.970;2022-10-16T07:47:15;12.35;;;3.50;;
60312;SDS011;46158;52.850;6.970;2022-10-16T07:49:41;11.18;;;3.08;;
60312;SDS011;46158;52.850;6.970;2022-10-16T07:52:06;12.02;;;3.13;;
60312;SDS011;46158;52.850;6.970;2022-10-16T07:54:32;13.10;;;3.20;;
60312;SDS011;46158;52.850;6.970;2022-10-16T07:56:57;14.55;;;3.15;;
60312;SDS011;46158;52.850;6.970;2022-10-16T07:59:23;14.15;;;3.28;;
60312;SDS011;46158;52.850;6.970;2022-10-16T08:01:49;13.63;;;3.00;;
60312;SDS011;46158;52.850;6.970;2022-10-16T08:04:14;11.95;;;2.92;;
60312;SDS011;46158;52.850;6.970;2022-10-16T08:06:40;12.65;;;3.28;;
60312;SDS011;46158;52.850;6.970;2022-10-16T08:09:07;11.68;;;2.90;;
60312;SDS011;46158;52.850;6.970;2022-10-16T08:11:33;11.55;;;2.92;;
60312;SDS011;46158;52.850;6.970;2022-10-16T08:13:59;10.23;;;3.00;;
60312;SDS011;46158;52.850;6.970;2022-10-16T08:16:25;13.18;;;3.20;;
60312;SDS011;46158;52.850;6.970;2022-10-16T08:18:51;10.07;;;2.60;;
60312;SDS011;46158;52.850;6.970;2022-10-16T08:21:17;10.48;;;2.90;;
60312;SDS011;46158;52.850;6.970;2022-10-16T08:23:44;10.77;;;2.80;;
60312;SDS011;46158;52.850;6.970;2022-10-16T08:26:11;9.95;;;2.83;;
60312;SDS011;46158;52.850;6.970;2022-10-16T08:28:37;11.82;;;2.60;;
60312;SDS011;46158;52.850;6.970;2022-10-16T08:31:10;9.82;;;2.50;;
60312;SDS011;46158;52.850;6.970;2022-10-16T08:33:38;12.50;;;2.75;;
60312;SDS011;46158;52.850;6.970;2022-10-16T08:36:06;10.30;;;2.72;;
60312;SDS011;46158;52.850;6.970;2022-10-16T08:38:32;8.88;;;2.40;;
60312;SDS011;46158;52.850;6.970;2022-10-16T08:49:21;7.00;;;2.75;;
60312;SDS011;46158;52.850;6.970;2022-10-16T08:51:49;7.88;;;2.40;;
60312;SDS011;46158;52.850;6.970;2022-10-16T08:54:32;13.13;;;3.05;;
60312;SDS011;46158;52.850;6.970;2022-10-16T08:57:16;5.72;;;2.40;;
60312;SDS011;46158;52.850;6.970;2022-10-16T08:59:45;9.52;;;2.60;;
60312;SDS011;46158;52.850;6.970;2022-10-16T09:05:14;11.88;;;2.50;;
60312;SDS011;46158;52.850;6.970;2022-10-16T09:08:04;11.75;;;3.10;;
60312;SDS011;46158;52.850;6.970;2022-10-16T09:21:23;7.93;;;2.20;;
60312;SDS011;46158;52.850;6.970;2022-10-16T09:23:52;14.40;;;2.45;;
60312;SDS011;46158;52.850;6.970;2022-10-16T09:26:22;7.30;;;2.20;;
60312;SDS011;46158;52.850;6.970;2022-10-16T09:28:47;9.70;;;2.30;;
60312;SDS011;46158;52.850;6.970;2022-10-16T09:31:15;14.02;;;2.45;;
60312;SDS011;46158;52.850;6.970;2022-10-16T09:33:43;9.43;;;2.55;;
60312;SDS011;46158;52.850;6.970;2022-10-16T09:36:12;10.90;;;2.80;;
60312;SDS011;46158;52.850;6.970;2022-10-16T09:38:45;9.05;;;2.78;;
60312;SDS011;46158;52.850;6.970;2022-10-16T09:41:20;8.32;;;2.30;;
60312;SDS011;46158;52.850;6.970;2022-10-16T09:43:59;9.75;;;2.50;;
60312;SDS011;46158;52.850;6.970;2022-10-16T09:46:36;11.80;;;2.73;;
60312;SDS011;46158;52.850;6.970;2022-10-16T09:49:04;8.60;;;2.20;;
60312;SDS011;46158;52.850;6.970;2022-10-16T09:51:43;6.28;;;2.42;;
60312;SDS011;46158;52.850;6.970;2022-10-16T09:56:35;7.32;;;2.60;;
60312;SDS011;46158;52.850;6.970;2022-10-16T09:59:12;7.78;;;2.40;;
60312;SDS011;46158;52.850;6.970;2022-10-16T10:04:13;9.40;;;2.38;;
60312;SDS011;46158;52.850;6.970;2022-10-16T10:16:52;8.05;;;2.50;;
60312;SDS011;46158;52.850;6.970;2022-10-16T10:19:27;8.57;;;2.30;;
60312;SDS011;46158;52.850;6.970;2022-10-16T10:21:54;12.52;;;2.40;;
60312;SDS011;46158;52.850;6.970;2022-10-16T10:24:20;14.40;;;2.30;;
60312;SDS011;46158;52.850;6.970;2022-10-16T10:26:57;12.15;;;2.58;;
60312;SDS011;46158;52.850;6.970;2022-10-16T10:35:39;9.63;;;2.58;;
60312;SDS011;46158;52.850;6.970;2022-10-16T10:38:29;10.70;;;2.40;;
60312;SDS011;46158;52.850;6.970;2022-10-16T10:41:09;10.98;;;2.53;;
60312;SDS011;46158;52.850;6.970;2022-10-16T10:46:41;8.18;;;2.30;;
60312;SDS011;46158;52.850;6.970;2022-10-16T10:49:19;9.20;;;2.45;;
60312;SDS011;46158;52.850;6.970;2022-10-16T11:00:28;5.35;;;2.00;;
60312;SDS011;46158;52.850;6.970;2022-10-16T11:03:03;8.65;;;2.22;;
60312;SDS011;46158;52.850;6.970;2022-10-16T11:05:43;9.70;;;2.22;;
60312;SDS011;46158;52.850;6.970;2022-10-16T11:08:17;7.07;;;2.10;;
60312;SDS011;46158;52.850;6.970;2022-10-16T11:15:48;9.70;;;2.30;;
60312;SDS011;46158;52.850;6.970;2022-10-16T11:18:16;8.13;;;2.17;;
60312;SDS011;46158;52.850;6.970;2022-10-16T11:26:45;8.70;;;2.40;;
60312;SDS011;46158;52.850;6.970;2022-10-16T11:29:23;9.68;;;2.40;;
60312;SDS011;46158;52.850;6.970;2022-10-16T11:31:55;15.65;;;3.50;;
60312;SDS011;46158;52.850;6.970;2022-10-16T11:36:59;12.13;;;3.08;;
60312;SDS011;46158;52.850;6.970;2022-10-16T11:39:33;17.13;;;3.45;;
60312;SDS011;46158;52.850;6.970;2022-10-16T11:42:04;17.95;;;3.30;;
60312;SDS011;46158;52.850;6.970;2022-10-16T11:50:12;14.27;;;3.85;;
60312;SDS011;46158;52.850;6.970;2022-10-16T11:52:53;13.77;;;3.35;;
60312;SDS011;46158;52.850;6.970;2022-10-16T11:55:22;16.80;;;3.75;;
60312;SDS011;46158;52.850;6.970;2022-10-16T11:57:57;14.48;;;3.25;;
60312;SDS011;46158;52.850;6.970;2022-10-16T12:00:37;15.65;;;3.75;;
60312;SDS011;46158;52.850;6.970;2022-10-16T12:05:58;14.57;;;3.65;;
60312;SDS011;46158;52.850;6.970;2022-10-16T12:08:45;19.25;;;3.92;;
60312;SDS011;46158;52.850;6.970;2022-10-16T12:19:22;14.45;;;3.17;;
60312;SDS011;46158;52.850;6.970;2022-10-16T12:21:49;13.93;;;3.00;;
60312;SDS011;46158;52.850;6.970;2022-10-16T12:24:21;17.52;;;3.88;;
60312;SDS011;46158;52.850;6.970;2022-10-16T12:26:59;15.35;;;3.17;;
60312;SDS011;46158;52.850;6.970;2022-10-16T12:32:05;13.23;;;3.13;;
60312;SDS011;46158;52.850;6.970;2022-10-16T12:34:48;14.82;;;3.05;;
60312;SDS011;46158;52.850;6.970;2022-10-16T12:37:23;13.45;;;3.17;;
60312;SDS011;46158;52.850;6.970;2022-10-16T12:39:51;13.55;;;3.25;;
60312;SDS011;46158;52.850;6.970;2022-10-16T12:44:55;9.88;;;3.08;;
60312;SDS011;46158;52.850;6.970;2022-10-16T12:47:35;9.90;;;2.80;;
60312;SDS011;46158;52.850;6.970;2022-10-16T12:50:03;13.25;;;3.08;;
60312;SDS011;46158;52.850;6.970;2022-10-16T12:52:57;13.98;;;3.20;;
60312;SDS011;46158;52.850;6.970;2022-10-16T12:55:23;16.42;;;3.28;;
60312;SDS011;46158;52.850;6.970;2022-10-16T13:01:07;11.85;;;3.13;;
60312;SDS011;46158;52.850;6.970;2022-10-16T13:03:46;12.05;;;2.65;;
60312;SDS011;46158;52.850;6.970;2022-10-16T13:09:18;11.15;;;3.00;;
60312;SDS011;46158;52.850;6.970;2022-10-16T13:12:06;10.63;;;3.00;;
60312;SDS011;46158;52.850;6.970;2022-10-16T13:20:18;11.98;;;2.85;;
60312;SDS011;46158;52.850;6.970;2022-10-16T13:23:12;11.95;;;2.85;;
60312;SDS011;46158;52.850;6.970;2022-10-16T13:26:06;8.35;;;2.70;;
60312;SDS011;46158;52.850;6.970;2022-10-16T13:28:34;8.50;;;2.40;;
60312;SDS011;46158;52.850;6.970;2022-10-16T13:31:02;12.85;;;2.88;;
60312;SDS011;46158;52.850;6.970;2022-10-16T13:33:39;11.45;;;2.80;;
60312;SDS011;46158;52.850;6.970;2022-10-16T13:36:05;9.05;;;2.67;;
60312;SDS011;46158;52.850;6.970;2022-10-16T13:38:34;12.23;;;2.58;;
60312;SDS011;46158;52.850;6.970;2022-10-16T13:43:42;9.20;;;2.93;;
60312;SDS011;46158;52.850;6.970;2022-10-16T13:46:20;12.15;;;3.13;;
60312;SDS011;46158;52.850;6.970;2022-10-16T13:49:00;8.83;;;2.60;;
60312;SDS011;46158;52.850;6.970;2022-10-16T13:51:30;11.05;;;2.70;;
60312;SDS011;46158;52.850;6.970;2022-10-16T13:53:57;7.00;;;2.40;;
60312;SDS011;46158;52.850;6.970;2022-10-16T13:56:30;11.63;;;2.53;;
60312;SDS011;46158;52.850;6.970;2022-10-16T13:58:58;10.15;;;2.70;;
60312;SDS011;46158;52.850;6.970;2022-10-16T14:01:29;11.00;;;2.70;;
60312;SDS011;46158;52.850;6.970;2022-10-16T14:04:07;8.18;;;2.50;;
60312;SDS011;46158;52.850;6.970;2022-10-16T14:06:35;6.57;;;2.25;;
60312;SDS011;46158;52.850;6.970;2022-10-16T14:11:45;7.13;;;2.10;;
60312;SDS011;46158;52.850;6.970;2022-10-16T14:14:14;10.52;;;2.47;;
60312;SDS011;46158;52.850;6.970;2022-10-16T14:16:41;8.15;;;2.45;;
60312;SDS011;46158;52.850;6.970;2022-10-16T14:19:19;11.48;;;3.25;;
60312;SDS011;46158;52.850;6.970;2022-10-16T14:21:52;13.32;;;3.08;;
60312;SDS011;46158;52.850;6.970;2022-10-16T14:26:57;8.10;;;2.47;;
60312;SDS011;46158;52.850;6.970;2022-10-16T14:29:24;10.23;;;2.80;;
60312;SDS011;46158;52.850;6.970;2022-10-16T14:31:55;7.63;;;2.40;;
60312;SDS011;46158;52.850;6.970;2022-10-16T14:36:56;10.00;;;2.40;;
60312;SDS011;46158;52.850;6.970;2022-10-16T14:39:33;11.68;;;2.75;;
60312;SDS011;46158;52.850;6.970;2022-10-16T14:42:00;9.45;;;2.72;;
60312;SDS011;46158;52.850;6.970;2022-10-16T14:44:27;11.07;;;2.30;;
60312;SDS011;46158;52.850;6.970;2022-10-16T14:46:57;10.57;;;2.30;;
60312;SDS011;46158;52.850;6.970;2022-10-16T14:49:24;8.00;;;2.35;;
60312;SDS011;46158;52.850;6.970;2022-10-16T14:51:51;13.07;;;3.50;;
60312;SDS011;46158;52.850;6.970;2022-10-16T14:54:17;12.98;;;3.17;;
60312;SDS011;46158;52.850;6.970;2022-10-16T14:56:53;8.73;;;2.60;;
60312;SDS011;46158;52.850;6.970;2022-10-16T15:02:14;9.50;;;2.67;;
60312;SDS011;46158;52.850;6.970;2022-10-16T15:04:45;8.77;;;2.55;;
60312;SDS011;46158;52.850;6.970;2022-10-16T15:07:11;13.10;;;2.80;;
60312;SDS011;46158;52.850;6.970;2022-10-16T15:09:37;12.40;;;2.67;;
60312;SDS011;46158;52.850;6.970;2022-10-16T15:12:02;10.07;;;2.70;;
60312;SDS011;46158;52.850;6.970;2022-10-16T15:14:28;6.18;;;2.33;;
60312;SDS011;46158;52.850;6.970;2022-10-16T15:16:54;10.65;;;2.53;;
60312;SDS011;46158;52.850;6.970;2022-10-16T15:19:19;8.02;;;2.60;;
60312;SDS011;46158;52.850;6.970;2022-10-16T15:21:45;7.82;;;2.30;;
60312;SDS011;46158;52.850;6.970;2022-10-16T15:24:11;9.10;;;2.40;;
60312;SDS011;46158;52.850;6.970;2022-10-16T15:26:38;15.93;;;2.60;;
60312;SDS011;46158;52.850;6.970;2022-10-16T15:29:04;12.00;;;2.83;;
60312;SDS011;46158;52.850;6.970;2022-10-16T15:31:30;8.73;;;2.40;;
60312;SDS011;46158;52.850;6.970;2022-10-16T15:33:56;7.97;;;2.30;;
60312;SDS011;46158;52.850;6.970;2022-10-16T15:36:32;9.70;;;2.65;;
60312;SDS011;46158;52.850;6.970;2022-10-16T15:39:01;7.03;;;2.40;;
60312;SDS011;46158;52.850;6.970;2022-10-16T15:41:33;10.43;;;2.40;;
60312;SDS011;46158;52.850;6.970;2022-10-16T15:43:59;7.72;;;2.20;;
60312;SDS011;46158;52.850;6.970;2022-10-16T15:46:25;8.95;;;2.38;;
60312;SDS011;46158;52.850;6.970;2022-10-16T15:48:51;5.00;;;2.20;;
60312;SDS011;46158;52.850;6.970;2022-10-16T15:51:22;7.70;;;2.20;;
60312;SDS011;46158;52.850;6.970;2022-10-16T15:53:47;9.98;;;2.30;;
60312;SDS011;46158;52.850;6.970;2022-10-16T15:56:13;8.02;;;2.22;;
60312;SDS011;46158;52.850;6.970;2022-10-16T15:58:39;11.50;;;2.58;;
60312;SDS011;46158;52.850;6.970;2022-10-16T16:01:05;7.45;;;2.10;;
60312;SDS011;46158;52.850;6.970;2022-10-16T16:03:31;9.15;;;2.42;;
60312;SDS011;46158;52.850;6.970;2022-10-16T16:05:57;9.23;;;2.20;;
60312;SDS011;46158;52.850;6.970;2022-10-16T16:13:26;5.60;;;1.90;;
60312;SDS011;46158;52.850;6.970;2022-10-16T16:15:52;7.60;;;2.10;;
60312;SDS011;46158;52.850;6.970;2022-10-16T16:18:17;9.98;;;2.35;;
60312;SDS011;46158;52.850;6.970;2022-10-16T16:20:43;8.15;;;2.10;;
60312;SDS011;46158;52.850;6.970;2022-10-16T16:23:09;8.85;;;2.25;;
60312;SDS011;46158;52.850;6.970;2022-10-16T16:25:34;9.10;;;2.47;;
60312;SDS011;46158;52.850;6.970;2022-10-16T16:28:01;8.57;;;2.15;;
60312;SDS011;46158;52.850;6.970;2022-10-16T16:30:26;11.50;;;2.40;;
60312;SDS011;46158;52.850;6.970;2022-10-16T16:32:52;7.50;;;2.30;;
60312;SDS011;46158;52.850;6.970;2022-10-16T16:35:18;14.15;;;2.90;;
60312;SDS011;46158;52.850;6.970;2022-10-16T16:37:43;17.17;;;3.50;;
60312;SDS011;46158;52.850;6.970;2022-10-16T16:40:09;16.52;;;4.40;;
60312;SDS011;46158;52.850;6.970;2022-10-16T16:42:35;21.58;;;4.78;;
60312;SDS011;46158;52.850;6.970;2022-10-16T16:45:01;17.48;;;5.13;;
60312;SDS011;46158;52.850;6.970;2022-10-16T16:47:26;21.30;;;5.10;;
60312;SDS011;46158;52.850;6.970;2022-10-16T16:49:52;23.65;;;5.60;;
60312;SDS011;46158;52.850;6.970;2022-10-16T16:52:17;23.23;;;6.05;;
60312;SDS011;46158;52.850;6.970;2022-10-16T16:54:43;23.50;;;5.72;;
60312;SDS011;46158;52.850;6.970;2022-10-16T16:57:16;24.55;;;6.32;;
60312;SDS011;46158;52.850;6.970;2022-10-16T16:59:45;23.83;;;5.57;;
60312;SDS011;46158;52.850;6.970;2022-10-16T17:02:10;22.85;;;5.50;;
60312;SDS011;46158;52.850;6.970;2022-10-16T17:04:36;22.17;;;5.82;;
60312;SDS011;46158;52.850;6.970;2022-10-16T17:07:02;22.13;;;5.80;;
60312;SDS011;46158;52.850;6.970;2022-10-16T17:09:28;24.10;;;5.70;;
60312;SDS011;46158;52.850;6.970;2022-10-16T17:11:56;22.75;;;5.95;;
60312;SDS011;46158;52.850;6.970;2022-10-16T17:14:22;24.52;;;6.30;;
60312;SDS011;46158;52.850;6.970;2022-10-16T17:16:47;22.63;;;6.13;;